Aérodrome :
LOGIN :

S'inscrire | Disclaimer

   EN    FR    IT 

 










Légende :    VFR   VFR Marginal   IFR   IFR Intensif   IFR Très Intensif
Visi : 
Plafond : 
>= 8 km
>= 3000ft
5 à 8 km
1000 à 3000 ft
1500m à 5 km
500 à 1000 ft
800 à 1500m
200 à 500 ft
< 800m
< 200 ft
Symboles :   Orages  Brouillard  Fortes neiges  Fortes précipitations  Vent > 20 kt
SIGMETs :   Divers  Orages  Givrage  Turbulence  Onde Orograph.  Cendres Volcan.







- Altitude de l'aérodrome : 755 ft
- Code IATA : DRS


EDDC - Dresden Klotzsche

DERNIER METAR :
  • 231150Z 27011G21KT 240V320 6000 -RADZ SCT008 BKN010 11/09 Q1021 TEMPO 27015G25KT BKN008

METARs EXPIRÉS :
  • 231120Z 27009KT 230V320 9999 SCT008 BKN010 11/09 Q1021 TEMPO 27015G25KT BKN008
  • 231050Z 27011KT 240V300 9999 BKN008 BKN013 11/09 Q1021 TEMPO 27015G25KT BKN010
  • 231020Z 27012KT 250V330 5000 -RADZ SCT008 BKN013 10/09 Q1021 TEMPO 27015G25KT 4000 -RADZ BKN008
  • 230950Z 27012KT 240V310 9999 -SHRA SCT012 BKN016 11/08 Q1021 TEMPO 27015G25KT BKN012
  • 230920Z 28012KT 240V320 9999 -SHRA FEW012 BKN018 11/08 Q1021 TEMPO 27015G25KT
  • 230850Z 29013KT 250V340 9999 BKN021 12/07 Q1021 TEMPO 27015G25KT

TAF TAF EDDC
Valide du 23 à 12h jusqu'au 24 à 12h UTC


231100Z 2312/2412 27010KT 9999 BKN015
TEMPO 2312/2315 BKN008
BECMG 2319/2322 BKN012
PROB30
TEMPO 2322/2409 4000 -RADZ BKN006
BECMG 2409/2412 BKN015
Pas de NOTAMs connus pour ce terrain.



MET'MAP, la Météo Aéronautique d'un coup d'oeil ! - Copyright ORBIFLY Décembre 2007 - Disclaimer

ORBIFLY MET'MAP TEAM :

Programmation & Développement : Alexandra Zaïnal
Conception & Développement : Baudouin d'Aumeries
Co-Programmation & Développement : Marc-Olivier Méhu
Soutien technique & logistique : Manuel Goepfert

Contact : metmap@orbifly.com




SOURCES & CREDITS :

   NOAA